createdAt,value
2023-05-02T00:02:21.083Z,4.14
2023-05-02T00:04:48.652Z,4.11
2023-05-02T00:07:16.065Z,4.13
2023-05-02T00:09:43.625Z,4.10
2023-05-02T00:12:10.822Z,4.06
2023-05-02T00:14:38.405Z,4.13
2023-05-02T00:17:05.826Z,4.17
2023-05-02T00:19:37.848Z,4.19
2023-05-02T00:22:05.053Z,4.27
2023-05-02T00:24:33.299Z,4.26
2023-05-02T00:27:00.913Z,4.21
2023-05-02T00:29:28.470Z,4.34
2023-05-02T00:31:55.636Z,4.38
2023-05-02T00:34:23.191Z,4.31
2023-05-02T00:36:50.566Z,4.35
2023-05-02T00:39:18.082Z,4.37
2023-05-02T00:41:45.262Z,4.52
2023-05-02T00:44:14.937Z,4.52
2023-05-02T00:46:44.038Z,4.52
2023-05-02T00:49:11.537Z,4.41
2023-05-02T00:51:42.479Z,4.31
2023-05-02T00:54:11.106Z,4.18
2023-05-02T00:56:38.559Z,4.13
2023-05-02T00:59:08.937Z,4.09
2023-05-02T01:02:14.674Z,4.10
2023-05-02T01:05:17.175Z,4.14
2023-05-02T01:07:57.530Z,4.18
2023-05-02T01:10:42.915Z,4.17
2023-05-02T01:13:17.562Z,4.20
2023-05-02T01:15:48.121Z,4.26
2023-05-02T01:18:18.672Z,4.29
2023-05-02T01:20:50.869Z,4.33
2023-05-02T01:23:29.613Z,4.40
2023-05-02T01:26:05.843Z,4.31
2023-05-02T01:29:00.439Z,4.43
2023-05-02T01:31:42.964Z,4.23
2023-05-02T01:34:11.441Z,4.09
2023-05-02T01:36:44.050Z,4.26
2023-05-02T01:39:18.832Z,4.19
2023-05-02T01:41:52.334Z,4.07
2023-05-02T01:44:22.512Z,4.01
2023-05-02T01:46:52.139Z,4.04
2023-05-02T01:49:19.998Z,4.08
2023-05-02T01:51:50.428Z,4.29
2023-05-02T01:54:20.360Z,4.20
2023-05-02T01:56:49.419Z,4.05
2023-05-02T01:59:20.217Z,4.21
2023-05-02T02:01:50.322Z,4.21
2023-05-02T02:04:19.986Z,4.25
2023-05-02T02:06:53.855Z,4.15
2023-05-02T02:09:21.756Z,4.31
2023-05-02T02:12:06.303Z,4.31
2023-05-02T02:14:48.455Z,4.24
2023-05-02T02:17:25.900Z,4.15
2023-05-02T02:19:55.213Z,3.91
2023-05-02T02:22:26.921Z,3.85
2023-05-02T02:24:55.270Z,3.78
2023-05-02T02:27:22.872Z,3.86
2023-05-02T02:29:50.254Z,3.79
2023-05-02T02:32:17.686Z,3.82
2023-05-02T02:34:45.090Z,3.55
2023-05-02T02:37:19.712Z,3.64
2023-05-02T02:40:09.807Z,3.71
2023-05-02T02:42:50.208Z,3.66
2023-05-02T02:45:38.611Z,3.79
2023-05-02T02:48:21.382Z,3.92
2023-05-02T02:51:06.896Z,3.99
2023-05-02T02:53:56.752Z,3.77
2023-05-02T02:56:46.000Z,3.72
2023-05-02T02:59:19.519Z,3.69
2023-05-02T03:01:54.013Z,3.56
2023-05-02T03:04:23.176Z,3.49
2023-05-02T03:06:50.946Z,3.46
2023-05-02T03:09:19.139Z,3.47
2023-05-02T03:11:48.505Z,3.54
2023-05-02T03:14:16.608Z,3.52
2023-05-02T03:16:45.153Z,3.54
2023-05-02T03:19:15.734Z,3.62
2023-05-02T03:21:43.648Z,3.62
2023-05-02T03:24:19.224Z,3.66
2023-05-02T03:26:48.197Z,3.72
2023-05-02T03:29:19.484Z,3.68
2023-05-02T03:31:46.789Z,3.69
2023-05-02T03:34:14.324Z,3.70
2023-05-02T03:36:43.014Z,3.71
2023-05-02T03:39:11.152Z,3.66
2023-05-02T03:41:42.594Z,3.78
2023-05-02T03:44:14.085Z,3.79
2023-05-02T03:46:41.956Z,3.77
2023-05-02T03:49:12.303Z,3.85
2023-05-02T03:51:42.258Z,3.85
2023-05-02T03:54:10.214Z,3.89
2023-05-02T03:56:42.717Z,3.92
2023-05-02T03:59:22.880Z,4.00
2023-05-02T04:01:51.639Z,4.05
2023-05-02T04:04:22.610Z,4.15
2023-05-02T04:06:52.420Z,4.25
2023-05-02T04:09:25.349Z,4.39
2023-05-02T04:12:00.691Z,4.30
2023-05-02T04:14:28.603Z,4.33
2023-05-02T04:16:57.304Z,4.39
2023-05-02T04:19:39.684Z,4.51
2023-05-02T04:22:07.128Z,4.54
2023-05-02T04:24:38.429Z,4.71
2023-05-02T04:27:05.752Z,4.98
2023-05-02T04:29:33.644Z,5.02
2023-05-02T04:32:01.643Z,5.17
2023-05-02T04:34:30.561Z,5.27
2023-05-02T04:36:57.832Z,5.53
2023-05-02T04:39:26.910Z,5.66
2023-05-02T04:42:07.642Z,5.69
2023-05-02T04:44:42.321Z,5.88
2023-05-02T04:47:10.033Z,6.03
2023-05-02T04:49:37.511Z,6.17
2023-05-02T04:52:04.956Z,6.42
2023-05-02T04:54:34.832Z,6.63
2023-05-02T04:57:03.814Z,6.80
2023-05-02T04:59:35.171Z,7.06
2023-05-02T05:02:03.829Z,7.12
2023-05-02T05:04:31.736Z,7.38
2023-05-02T05:06:59.107Z,7.50
2023-05-02T05:09:30.507Z,7.50
2023-05-02T05:11:57.712Z,7.49
2023-05-02T05:14:25.552Z,7.54
2023-05-02T05:16:54.994Z,7.74
2023-05-02T05:19:23.348Z,7.88
2023-05-02T05:21:51.176Z,7.77
2023-05-02T05:24:20.161Z,7.75
2023-05-02T05:26:47.969Z,7.41
2023-05-02T05:29:15.827Z,7.24
2023-05-02T05:31:44.174Z,7.25
2023-05-02T05:34:14.990Z,7.15
2023-05-02T05:36:43.308Z,7.18
2023-05-02T05:39:13.434Z,7.09
2023-05-02T05:41:43.439Z,7.18
2023-05-02T05:44:12.607Z,7.29
2023-05-02T05:46:39.922Z,7.45
2023-05-02T05:49:10.065Z,7.42
2023-05-02T05:51:37.665Z,7.41
2023-05-02T05:54:05.249Z,7.55
2023-05-02T05:56:32.991Z,7.70
2023-05-02T05:59:09.432Z,7.84
2023-05-02T06:01:38.323Z,8.06
2023-05-02T06:04:07.604Z,8.41
2023-05-02T06:06:38.255Z,8.77
2023-05-02T06:09:06.164Z,8.86
2023-05-02T06:11:33.946Z,9.03
2023-05-02T06:14:01.996Z,9.25
2023-05-02T06:16:29.203Z,9.57
2023-05-02T06:18:56.857Z,9.77
2023-05-02T06:21:24.087Z,9.98
2023-05-02T06:23:51.705Z,10.00
2023-05-02T06:26:18.958Z,10.35
2023-05-02T06:28:46.532Z,10.53
2023-05-02T06:31:13.746Z,10.89
2023-05-02T06:33:41.323Z,11.13
2023-05-02T06:36:08.700Z,11.41
2023-05-02T06:38:36.235Z,11.70
2023-05-02T06:41:03.440Z,11.86
2023-05-02T06:43:31.041Z,12.08
2023-05-02T06:45:58.986Z,12.11
2023-05-02T06:48:26.519Z,12.13
2023-05-02T06:50:54.481Z,12.17
2023-05-02T06:53:22.072Z,12.27
2023-05-02T06:55:49.967Z,12.41
2023-05-02T06:58:17.553Z,12.70
2023-05-02T07:00:44.804Z,12.78
2023-05-02T07:03:13.288Z,12.87
2023-05-02T07:05:40.646Z,12.90
2023-05-02T07:08:09.220Z,13.12
2023-05-02T07:10:36.762Z,13.44
2023-05-02T07:13:04.431Z,13.59
2023-05-02T07:15:31.785Z,13.92
2023-05-02T07:17:59.419Z,13.99
2023-05-02T07:20:26.733Z,14.04
2023-05-02T07:25:45.650Z,14.45
2023-05-02T07:28:13.213Z,14.79
2023-05-02T07:30:40.428Z,14.93
2023-05-02T07:33:08.240Z,15.32
2023-05-02T07:35:35.790Z,15.48
2023-05-02T07:38:03.299Z,15.80
2023-05-02T07:40:30.643Z,16.07
2023-05-02T07:43:01.197Z,16.26
2023-05-02T07:45:29.757Z,16.38
2023-05-02T07:47:57.408Z,16.54
2023-05-02T07:50:24.768Z,16.35
2023-05-02T07:52:53.061Z,16.62
2023-05-02T07:55:21.714Z,16.86
2023-05-02T07:57:49.281Z,17.09
2023-05-02T08:00:17.091Z,17.39
2023-05-02T08:02:46.500Z,17.83
2023-05-02T08:05:13.932Z,18.26
2023-05-02T08:07:41.615Z,18.61
2023-05-02T08:10:11.574Z,18.96
2023-05-02T08:12:42.148Z,19.06
2023-05-02T08:15:12.702Z,19.19
2023-05-02T08:17:40.766Z,19.35
2023-05-02T08:20:08.570Z,19.79
2023-05-02T08:22:36.270Z,20.19
2023-05-02T08:25:06.140Z,20.54
2023-05-02T08:27:36.351Z,20.89
2023-05-02T08:30:09.168Z,21.31
2023-05-02T08:32:38.779Z,21.69
2023-05-02T08:35:07.372Z,21.82
2023-05-02T08:37:37.134Z,21.95
2023-05-02T08:40:06.000Z,22.25
2023-05-02T08:42:34.973Z,22.32
2023-05-02T08:45:02.933Z,22.55
2023-05-02T08:47:32.662Z,22.95
2023-05-02T08:50:01.166Z,23.18
2023-05-02T08:52:30.752Z,23.48
2023-05-02T08:55:01.195Z,23.76
2023-05-02T08:57:32.473Z,23.77
2023-05-02T08:59:59.803Z,23.99
2023-05-02T09:02:43.846Z,24.40
2023-05-02T09:05:12.832Z,24.34
2023-05-02T09:07:48.706Z,24.51
2023-05-02T09:10:16.360Z,24.64
2023-05-02T09:12:44.191Z,25.04
2023-05-02T09:15:11.881Z,25.40
2023-05-02T09:17:41.388Z,25.44
2023-05-02T09:20:09.732Z,25.05
2023-05-02T09:22:38.724Z,24.84
2023-05-02T09:25:07.668Z,24.03
2023-05-02T09:27:52.570Z,23.59
2023-05-02T09:30:24.420Z,23.67
2023-05-02T09:32:56.959Z,24.02
2023-05-02T09:35:24.944Z,24.24
2023-05-02T09:37:59.543Z,24.87
2023-05-02T09:40:28.237Z,25.21
2023-05-02T09:42:56.696Z,24.94
2023-05-02T09:45:26.166Z,25.18
2023-05-02T09:47:54.239Z,24.80
2023-05-02T09:50:39.186Z,24.69
2023-05-02T09:53:09.991Z,25.10
2023-05-02T09:55:37.803Z,24.90
2023-05-02T09:58:06.902Z,25.00
2023-05-02T10:00:44.900Z,24.66
2023-05-02T10:03:20.694Z,23.77
2023-05-02T10:05:48.054Z,23.24
2023-05-02T10:08:19.042Z,22.68
2023-05-02T10:10:54.019Z,22.62
2023-05-02T10:13:24.628Z,22.78
2023-05-02T10:16:00.976Z,22.55
2023-05-02T10:18:39.187Z,22.97
2023-05-02T10:21:10.887Z,23.25
2023-05-02T10:23:45.996Z,23.22
2023-05-02T10:26:17.692Z,23.53
2023-05-02T10:28:46.222Z,23.39
2023-05-02T10:31:15.159Z,22.58
2023-05-02T10:33:46.365Z,21.57
2023-05-02T10:36:14.018Z,21.00
2023-05-02T10:38:42.712Z,20.80
2023-05-02T10:41:15.007Z,20.78
2023-05-02T10:43:47.977Z,20.76
2023-05-02T10:46:34.587Z,20.59
2023-05-02T10:49:08.543Z,20.38
2023-05-02T10:51:39.365Z,20.40
2023-05-02T10:54:23.914Z,20.16
2023-05-02T10:57:06.770Z,20.06
2023-05-02T10:59:38.710Z,20.03
2023-05-02T11:02:28.404Z,19.80
2023-05-02T11:05:06.674Z,19.46
2023-05-02T11:07:39.392Z,19.01
2023-05-02T11:10:22.150Z,18.80
2023-05-02T11:12:54.056Z,18.71
2023-05-02T11:15:32.917Z,18.57
2023-05-02T11:18:08.040Z,18.50
2023-05-02T11:20:37.474Z,18.77
2023-05-02T11:23:22.954Z,19.14
2023-05-02T11:25:52.735Z,19.10
2023-05-02T11:28:38.681Z,18.76
2023-05-02T11:31:30.845Z,18.76
2023-05-02T11:34:03.093Z,18.95
2023-05-02T11:36:33.947Z,19.34
2023-05-02T11:39:08.127Z,19.54
2023-05-02T11:41:47.139Z,19.78
2023-05-02T11:44:14.662Z,19.93
2023-05-02T11:46:42.888Z,19.95
2023-05-02T11:49:14.893Z,20.12
2023-05-02T11:51:43.131Z,19.97
2023-05-02T11:54:19.358Z,20.32
2023-05-02T11:56:48.396Z,21.23
2023-05-02T11:59:15.766Z,22.48
2023-05-02T12:01:51.283Z,23.28
2023-05-02T12:04:22.241Z,24.09
2023-05-02T12:06:58.915Z,25.16
2023-05-02T12:09:26.622Z,25.56
2023-05-02T12:11:55.092Z,26.05
2023-05-02T12:14:33.779Z,26.32
2023-05-02T12:17:04.532Z,26.73
2023-05-02T12:19:37.374Z,26.97
2023-05-02T12:22:06.419Z,27.61
2023-05-02T12:24:34.572Z,27.63
2023-05-02T12:27:13.954Z,27.99
2023-05-02T12:29:41.930Z,27.67
2023-05-02T12:32:10.821Z,27.68
2023-05-02T12:34:39.232Z,28.02
2023-05-02T12:37:08.348Z,28.04
2023-05-02T12:39:43.631Z,28.47
2023-05-02T12:42:16.893Z,29.02
2023-05-02T12:44:46.343Z,29.21
2023-05-02T12:47:15.888Z,29.67
2023-05-02T12:49:57.909Z,28.70
2023-05-02T12:52:47.144Z,28.72
2023-05-02T12:55:22.019Z,28.71
2023-05-02T12:57:49.784Z,28.19
2023-05-02T13:00:18.421Z,27.14
2023-05-02T13:02:47.714Z,26.36
2023-05-02T13:05:16.017Z,25.74
2023-05-02T13:07:43.735Z,25.55
2023-05-02T13:10:14.776Z,24.96
2023-05-02T13:12:44.434Z,24.79
2023-05-02T13:15:13.624Z,24.28
2023-05-02T13:17:41.657Z,24.04
2023-05-02T13:20:09.722Z,23.39
2023-05-02T13:22:40.046Z,23.36
2023-05-02T13:25:09.057Z,22.75
2023-05-02T13:27:37.745Z,22.44
2023-05-02T13:30:08.766Z,22.38
2023-05-02T13:32:36.883Z,22.18
2023-05-02T13:35:04.391Z,22.10
2023-05-02T13:37:32.595Z,22.16
2023-05-02T13:40:00.134Z,22.14
2023-05-02T13:42:28.007Z,22.05
2023-05-02T13:44:55.235Z,21.81
2023-05-02T13:47:22.962Z,21.86
2023-05-02T13:49:50.707Z,21.60
2023-05-02T13:52:18.486Z,21.18
2023-05-02T13:54:45.884Z,20.95
2023-05-02T13:57:13.579Z,20.86
2023-05-02T13:59:41.122Z,20.64
2023-05-02T14:02:09.023Z,20.44
2023-05-02T14:04:36.336Z,20.68
2023-05-02T14:07:04.108Z,20.92
2023-05-02T14:09:32.191Z,21.06
2023-05-02T14:12:00.135Z,21.32
2023-05-02T14:14:27.533Z,21.34
2023-05-02T14:16:58.651Z,21.19
2023-05-02T14:19:28.882Z,21.20
2023-05-02T14:21:57.311Z,21.07
2023-05-02T14:24:24.752Z,21.12
2023-05-02T14:26:52.330Z,21.10
2023-05-02T14:29:20.063Z,20.97
2023-05-02T14:31:47.984Z,20.70
2023-05-02T14:34:15.720Z,20.41
2023-05-02T14:36:43.690Z,20.21
2023-05-02T14:39:13.275Z,20.15
2023-05-02T14:41:40.958Z,20.11
2023-05-02T14:44:08.380Z,20.11
2023-05-02T14:46:36.095Z,20.16
2023-05-02T14:49:03.419Z,20.33
2023-05-02T14:51:32.196Z,20.30
2023-05-02T14:54:00.172Z,20.30
2023-05-02T14:56:28.371Z,20.39
2023-05-02T14:58:55.821Z,20.16
2023-05-02T15:01:23.751Z,20.04
2023-05-02T15:04:05.927Z,19.98
2023-05-02T15:06:36.427Z,19.73
2023-05-02T15:09:05.243Z,19.71
2023-05-02T15:11:33.143Z,19.73
2023-05-02T15:14:00.531Z,19.61
2023-05-02T15:16:28.230Z,19.46
2023-05-02T15:18:55.901Z,19.39
2023-05-02T15:21:23.785Z,19.21
2023-05-02T15:23:51.186Z,19.14
2023-05-02T15:26:19.041Z,19.00
2023-05-02T15:28:46.415Z,19.19
2023-05-02T15:31:15.198Z,18.96
2023-05-02T15:33:44.565Z,18.77
2023-05-02T15:36:14.604Z,18.69
2023-05-02T15:38:43.153Z,18.76
2023-05-02T15:41:11.782Z,18.57
2023-05-02T15:43:39.172Z,18.37
2023-05-02T15:46:06.772Z,18.04
2023-05-02T15:48:35.087Z,17.91
2023-05-02T15:51:09.860Z,17.51
2023-05-02T15:53:39.776Z,17.42
2023-05-02T15:56:13.531Z,17.25
2023-05-02T15:58:40.954Z,17.03
2023-05-02T16:01:08.716Z,16.93
2023-05-02T16:03:36.786Z,16.77
2023-05-02T16:06:07.942Z,16.67
2023-05-02T16:08:36.142Z,16.51
2023-05-02T16:11:06.008Z,16.35
2023-05-02T16:13:33.406Z,16.32
2023-05-02T16:16:01.128Z,16.25
2023-05-02T16:18:28.732Z,16.13
2023-05-02T16:20:59.996Z,16.06
2023-05-02T16:23:27.466Z,15.93
2023-05-02T16:25:59.177Z,16.06
2023-05-02T16:28:26.717Z,15.94
2023-05-02T16:30:55.713Z,16.09
2023-05-02T16:33:23.375Z,15.94
2023-05-02T16:36:01.944Z,16.05
2023-05-02T16:38:29.763Z,15.89
2023-05-02T16:40:57.788Z,15.90
2023-05-02T16:43:25.521Z,15.88
2023-05-02T16:46:04.244Z,15.83
2023-05-02T16:48:32.470Z,15.71
2023-05-02T16:51:03.290Z,15.72
2023-05-02T16:53:33.682Z,15.65
2023-05-02T16:56:02.009Z,15.67
2023-05-02T17:06:27.109Z,14.89
2023-05-02T17:08:54.807Z,14.91
2023-05-02T17:11:23.230Z,14.94
2023-05-02T17:13:52.815Z,14.69
2023-05-02T17:16:23.118Z,14.86
2023-05-02T17:18:50.952Z,14.95
2023-05-02T17:21:18.384Z,14.94
2023-05-02T17:23:46.157Z,14.90
2023-05-02T17:26:16.736Z,14.73
2023-05-02T17:28:45.219Z,14.64
2023-05-02T17:31:13.282Z,14.67
2023-05-02T17:33:42.556Z,14.78
2023-05-02T17:36:10.010Z,14.59
2023-05-02T17:38:37.912Z,14.46
2023-05-02T17:41:06.232Z,14.33
2023-05-02T17:43:33.932Z,14.32
2023-05-02T17:46:07.896Z,14.23
2023-05-02T17:48:37.101Z,14.27
2023-05-02T17:51:05.093Z,14.28
2023-05-02T17:53:33.878Z,14.23
2023-05-02T17:56:03.464Z,14.32
2023-05-02T17:58:32.161Z,14.21
2023-05-02T18:01:10.393Z,14.21
2023-05-02T18:03:38.975Z,14.05
2023-05-02T18:06:06.797Z,13.90
2023-05-02T18:08:34.704Z,13.84
2023-05-02T18:11:05.138Z,13.85
2023-05-02T18:13:33.235Z,13.81
2023-05-02T18:16:04.988Z,13.86
2023-05-02T18:18:33.420Z,13.90
2023-05-02T18:21:09.891Z,13.77
2023-05-02T18:23:37.941Z,13.69
2023-05-02T18:26:12.126Z,13.65
2023-05-02T18:28:42.709Z,13.52
2023-05-02T18:31:17.906Z,13.61
2023-05-02T18:33:47.166Z,13.57
2023-05-02T18:36:19.371Z,13.45
2023-05-02T18:38:47.280Z,13.43
2023-05-02T18:41:14.536Z,13.41
2023-05-02T18:43:42.355Z,13.31
2023-05-02T18:46:09.956Z,13.55
2023-05-02T18:48:37.667Z,13.22
2023-05-02T18:51:05.320Z,13.25
2023-05-02T18:53:33.798Z,13.22
2023-05-02T18:56:01.356Z,13.13
2023-05-02T18:58:29.241Z,13.26
2023-05-02T19:00:57.523Z,13.18
2023-05-02T19:03:27.034Z,13.16
2023-05-02T19:05:54.481Z,13.04
2023-05-02T19:08:24.078Z,13.08
2023-05-02T19:10:51.759Z,13.12
2023-05-02T19:13:20.573Z,13.04
2023-05-02T19:15:48.450Z,13.11
2023-05-02T19:18:17.598Z,13.12
2023-05-02T19:20:46.803Z,13.16
2023-05-02T19:23:20.298Z,13.10
2023-05-02T19:25:47.953Z,12.94
2023-05-02T19:28:18.686Z,12.98
2023-05-02T19:30:47.093Z,12.88
2023-05-02T19:33:14.793Z,12.90
2023-05-02T19:35:42.612Z,12.84
2023-05-02T19:38:10.244Z,12.95
2023-05-02T19:40:37.502Z,12.77
2023-05-02T19:43:05.205Z,12.73
2023-05-02T19:52:04.669Z,12.79
2023-05-02T19:54:33.564Z,13.28
2023-05-02T19:57:02.963Z,12.95
2023-05-02T19:59:30.614Z,13.28
2023-05-02T20:01:58.954Z,13.31
2023-05-02T20:04:27.957Z,13.23
2023-05-02T20:06:55.437Z,13.17
2023-05-02T20:09:23.203Z,13.16
2023-05-02T20:11:50.351Z,12.86
2023-05-02T20:14:19.046Z,12.84
2023-05-02T20:16:46.527Z,12.90
2023-05-02T20:19:14.297Z,12.89
2023-05-02T20:21:41.607Z,12.67
2023-05-02T20:24:09.193Z,12.92
2023-05-02T20:26:37.550Z,12.85
2023-05-02T20:29:05.240Z,13.00
2023-05-02T20:31:32.719Z,12.90
2023-05-02T20:34:00.563Z,12.80
2023-05-02T20:36:29.545Z,12.78
2023-05-02T20:38:58.035Z,12.63
2023-05-02T20:41:27.017Z,12.51
2023-05-02T20:43:55.414Z,12.49
2023-05-02T20:46:25.938Z,12.46
2023-05-02T20:48:53.865Z,12.39
2023-05-02T20:51:21.690Z,12.21
2023-05-02T20:53:49.348Z,12.25
2023-05-02T20:56:16.732Z,12.17
2023-05-02T20:58:44.488Z,12.12
2023-05-02T21:01:12.377Z,12.04
2023-05-02T21:03:41.366Z,11.96
2023-05-02T21:06:10.313Z,12.11
2023-05-02T21:08:38.073Z,12.10
2023-05-02T21:11:15.291Z,12.14
2023-05-02T21:13:43.932Z,12.48
2023-05-02T21:16:18.844Z,12.49
2023-05-02T21:18:47.683Z,12.63
2023-05-02T21:21:15.135Z,12.56
2023-05-02T21:23:42.828Z,12.43
2023-05-02T21:26:10.265Z,12.44
2023-05-02T21:28:38.901Z,12.43
2023-05-02T21:31:07.936Z,12.25
2023-05-02T21:33:36.000Z,12.21
2023-05-02T21:36:03.849Z,12.11
2023-05-02T21:38:31.552Z,12.05
2023-05-02T21:41:03.425Z,12.09
2023-05-02T21:43:34.256Z,12.22
2023-05-02T21:46:01.820Z,12.37
2023-05-02T21:48:29.751Z,12.53
2023-05-02T21:50:57.132Z,12.79
2023-05-02T21:53:25.019Z,12.87
2023-05-02T21:55:52.916Z,12.92
2023-05-02T21:58:20.709Z,12.99
2023-05-02T22:00:48.082Z,12.95
2023-05-02T22:03:16.003Z,12.93
2023-05-02T22:05:45.670Z,12.96
2023-05-02T22:08:13.699Z,12.91
2023-05-02T22:10:42.950Z,12.94
2023-05-02T22:13:12.858Z,12.84
2023-05-02T22:15:43.210Z,12.78
2023-05-02T22:18:11.054Z,12.78
2023-05-02T22:20:38.291Z,12.56
2023-05-02T22:23:06.029Z,12.53
2023-05-02T22:25:33.312Z,12.53
2023-05-02T22:28:04.141Z,12.52
2023-05-02T22:30:31.655Z,12.53
2023-05-02T22:32:59.263Z,12.50
2023-05-02T22:35:26.911Z,12.58
2023-05-02T22:37:54.660Z,12.58
2023-05-02T22:40:21.857Z,12.53
2023-05-02T22:42:51.527Z,12.67
2023-05-02T22:45:18.863Z,12.57
2023-05-02T22:47:46.478Z,12.42
2023-05-02T22:50:14.517Z,12.29
2023-05-02T22:52:42.592Z,12.21
2023-05-02T22:55:10.106Z,12.10
2023-05-02T22:57:38.094Z,12.13
2023-05-02T23:00:07.591Z,12.23
2023-05-02T23:02:36.110Z,12.16
2023-05-02T23:05:07.237Z,12.21
2023-05-02T23:07:34.831Z,12.27
2023-05-02T23:10:02.350Z,12.33
2023-05-02T23:12:30.261Z,12.25
2023-05-02T23:14:58.158Z,12.35
2023-05-02T23:17:26.011Z,12.35
2023-05-02T23:19:53.150Z,12.31
2023-05-02T23:22:20.655Z,12.24
2023-05-02T23:24:48.196Z,12.21
2023-05-02T23:27:15.840Z,12.28
2023-05-02T23:29:43.069Z,12.31
2023-05-02T23:32:13.163Z,12.36
2023-05-02T23:34:41.454Z,12.28
2023-05-02T23:37:09.502Z,12.24
2023-05-02T23:39:36.772Z,12.36
2023-05-02T23:42:04.589Z,12.57
2023-05-02T23:44:31.869Z,12.54
2023-05-02T23:47:00.226Z,12.51
2023-05-02T23:49:27.543Z,12.47
2023-05-02T23:51:55.030Z,12.48
2023-05-02T23:54:25.282Z,12.52
2023-05-02T23:56:53.762Z,12.48
2023-05-02T23:59:20.868Z,12.55
